Time;durP1;ratioP1;P1;durP2;ratioP2;P2;SDS_P1;SDS_P2;PMS_P1;PMS_P2;Temp;Humidity;BMP_temperature;BMP_pressure;BME280_temperature;BME280_humidity;BME280_pressure;Samples;Min_cycle;Max_cycle;Signal;HPM_P1;HPM_P2
2023/06/28 00:00:18;;;;;;;0.10;0.10;;;15.30;67.20;;;;;;5050724;28;20192;-54
2023/06/28 00:02:49;;;;;;;0.10;0.10;;;15.30;67.10;;;;;;5049461;28;20215;-53
2023/06/28 00:05:21;;;;;;;0.10;0.10;;;15.30;67.10;;;;;;5050505;28;20265;-54
2023/06/28 00:07:52;;;;;;;0.10;0.10;;;15.30;67.10;;;;;;5050438;28;20199;-54
2023/06/28 00:10:22;;;;;;;0.10;0.10;;;15.30;67.20;;;;;;5053774;28;20198;-55
2023/06/28 00:12:55;;;;;;;0.10;0.10;;;15.30;67.20;;;;;;5053425;28;20286;-54
2023/06/28 00:15:26;;;;;;;0.10;0.10;;;15.40;67.30;;;;;;5053889;28;20726;-56
2023/06/28 00:17:57;;;;;;;0.10;0.10;;;15.40;67.40;;;;;;5053799;28;20229;-56
2023/06/28 00:20:28;;;;;;;0.10;0.10;;;15.40;67.50;;;;;;5053905;28;20243;-54
2023/06/28 00:22:59;;;;;;;0.10;0.10;;;15.40;67.50;;;;;;5053565;28;20195;-51
2023/06/28 00:25:30;;;;;;;0.10;0.10;;;15.40;67.50;;;;;;5053880;28;20195;-52
2023/06/28 00:28:03;;;;;;;0.10;0.10;;;15.40;67.50;;;;;;5054467;28;20235;-57
2023/06/28 00:30:34;;;;;;;0.10;0.10;;;15.40;67.60;;;;;;5052857;28;20278;-54
2023/06/28 00:33:05;;;;;;;0.10;0.10;;;15.40;67.80;;;;;;5054093;28;20665;-52
2023/06/28 00:35:36;;;;;;;0.10;0.10;;;15.50;67.90;;;;;;5053321;28;20447;-51
2023/06/28 00:38:06;;;;;;;0.20;0.20;;;15.50;68.00;;;;;;5054279;28;20200;-55
2023/06/28 00:40:37;;;;;;;0.10;0.10;;;15.50;68.00;;;;;;5052997;28;20207;-49
2023/06/28 00:43:10;;;;;;;0.10;0.10;;;15.50;67.90;;;;;;5053299;28;20192;-54
2023/06/28 00:45:41;;;;;;;0.10;0.10;;;15.50;67.90;;;;;;5053162;28;20322;-53
2023/06/28 00:48:12;;;;;;;0.08;0.08;;;15.50;67.80;;;;;;5053834;28;20602;-51
2023/06/28 00:50:43;;;;;;;0.10;0.10;;;15.50;67.80;;;;;;5053455;28;21088;-53
2023/06/28 00:53:16;;;;;;;0.10;0.10;;;15.50;67.80;;;;;;5053497;28;20602;-55
2023/06/28 00:55:48;;;;;;;0.10;0.10;;;15.60;67.90;;;;;;5053051;28;20227;-54
2023/06/28 00:58:21;;;;;;;0.10;0.10;;;15.60;68.00;;;;;;5052441;28;20253;-52
2023/06/28 01:00:52;;;;;;;0.10;0.10;;;15.60;68.80;;;;;;5053576;28;20216;-52
2023/06/28 01:03:23;;;;;;;0.10;0.10;;;15.60;68.10;;;;;;5053383;28;20199;-52
2023/06/28 01:05:57;;;;;;;0.10;0.10;;;15.60;68.10;;;;;;5053391;28;20206;-53
2023/06/28 01:08:29;;;;;;;0.10;0.10;;;15.60;68.20;;;;;;5053155;28;20194;-55
2023/06/28 01:11:02;;;;;;;0.10;0.10;;;15.70;68.20;;;;;;5053085;28;20623;-51
2023/06/28 01:13:35;;;;;;;0.10;0.10;;;15.70;68.30;;;;;;5052377;28;20682;-51
2023/06/28 01:16:06;;;;;;;0.10;0.10;;;15.70;68.20;;;;;;5052828;28;20289;-52
2023/06/28 01:18:37;;;;;;;0.10;0.10;;;15.70;68.20;;;;;;5053227;28;20191;-54
2023/06/28 01:21:12;;;;;;;0.10;0.10;;;15.70;68.20;;;;;;5051653;28;20764;-53
2023/06/28 01:23:47;;;;;;;0.10;0.10;;;15.70;68.20;;;;;;5053387;28;20223;-55
2023/06/28 01:26:18;;;;;;;0.10;0.10;;;15.80;69.10;;;;;;5052622;28;20198;-54
2023/06/28 01:28:50;;;;;;;0.10;0.10;;;15.80;68.10;;;;;;5053266;28;20283;-54
2023/06/28 01:31:21;;;;;;;0.10;0.10;;;15.80;68.10;;;;;;5062935;28;20580;-57
2023/06/28 01:33:52;;;;;;;0.10;0.10;;;15.80;68.10;;;;;;5052210;28;20224;-57
2023/06/28 01:36:23;;;;;;;0.10;0.10;;;15.80;68.10;;;;;;5059747;28;20651;-53
2023/06/28 01:38:57;;;;;;;0.08;0.08;;;15.80;68.10;;;;;;5052740;28;20205;-54
2023/06/28 01:41:28;;;;;;;0.10;0.10;;;15.80;68.10;;;;;;5052147;28;20671;-54
2023/06/28 01:43:59;;;;;;;0.10;0.10;;;15.90;68.20;;;;;;5052207;28;20319;-53
2023/06/28 01:46:31;;;;;;;0.03;0.03;;;15.90;68.20;;;;;;5052790;28;20640;-53
2023/06/28 01:49:02;;;;;;;0.10;0.10;;;15.90;68.30;;;;;;5051849;28;20548;-54
2023/06/28 01:51:33;;;;;;;0.00;0.00;;;15.90;68.40;;;;;;5052366;28;20219;-56
2023/06/28 01:54:07;;;;;;;0.10;0.10;;;15.90;68.40;;;;;;5052565;28;20195;-54
2023/06/28 01:56:38;;;;;;;0.10;0.10;;;15.90;68.50;;;;;;5052482;28;20223;-54
2023/06/28 01:59:08;;;;;;;0.10;0.10;;;16.00;68.50;;;;;;5052787;28;20276;-53
2023/06/28 02:01:39;;;;;;;0.10;0.10;;;16.00;68.50;;;;;;5051107;28;20259;-54
2023/06/28 02:04:10;;;;;;;0.10;0.10;;;16.00;68.40;;;;;;5052125;28;20249;-52
2023/06/28 02:06:43;;;;;;;0.10;0.10;;;16.00;68.40;;;;;;5052179;28;20196;-51
2023/06/28 02:09:16;;;;;;;0.10;0.10;;;16.10;68.40;;;;;;5052468;28;20723;-55
2023/06/28 02:11:46;;;;;;;0.10;0.10;;;16.10;68.30;;;;;;5051481;28;20754;-51
2023/06/28 02:14:17;;;;;;;0.00;0.00;;;16.10;68.30;;;;;;5052548;28;20228;-52
2023/06/28 02:16:48;;;;;;;0.10;0.10;;;16.10;68.30;;;;;;5051898;28;20269;-52
2023/06/28 02:19:19;;;;;;;0.10;0.10;;;16.10;68.30;;;;;;5052456;28;20283;-54
2023/06/28 02:21:50;;;;;;;0.10;0.10;;;16.20;68.40;;;;;;5051367;28;20203;-55
2023/06/28 02:24:23;;;;;;;0.10;0.10;;;16.20;68.40;;;;;;5051013;28;20294;-54
2023/06/28 02:26:54;;;;;;;0.10;0.10;;;16.20;68.50;;;;;;5052051;28;20282;-53
2023/06/28 02:29:25;;;;;;;0.10;0.10;;;16.20;68.50;;;;;;5051602;28;20195;-55
2023/06/28 02:31:56;;;;;;;0.10;0.10;;;16.20;68.50;;;;;;5050374;28;20740;-54
2023/06/28 02:34:27;;;;;;;0.05;0.05;;;16.20;68.40;;;;;;5051014;28;20646;-54
2023/06/28 02:36:58;;;;;;;0.00;0.00;;;16.30;68.50;;;;;;5051213;28;20300;-55
2023/06/28 02:39:31;;;;;;;0.00;0.00;;;16.30;68.50;;;;;;5052145;28;20293;-50
2023/06/28 02:42:02;;;;;;;0.10;0.10;;;16.30;68.50;;;;;;5052009;28;20652;-54
2023/06/28 02:44:33;;;;;;;0.10;0.10;;;16.30;68.50;;;;;;5052181;28;20203;-55
2023/06/28 02:47:04;;;;;;;0.10;0.10;;;16.30;68.50;;;;;;5055474;28;20729;-48
2023/06/28 02:49:34;;;;;;;0.10;0.10;;;16.30;68.40;;;;;;5052152;28;20279;-52
2023/06/28 02:52:05;;;;;;;0.08;0.08;;;16.30;68.30;;;;;;5051104;28;20269;-52
2023/06/28 02:54:38;;;;;;;0.10;0.10;;;16.30;68.30;;;;;;5051664;28;20195;-55
2023/06/28 02:57:10;;;;;;;0.10;0.10;;;16.40;68.30;;;;;;5051564;28;20222;-57
2023/06/28 02:59:40;;;;;;;0.10;0.10;;;16.40;68.20;;;;;;5051551;28;20187;-56
2023/06/28 03:02:12;;;;;;;0.10;0.10;;;16.40;68.20;;;;;;5051074;28;20212;-55
2023/06/28 03:04:44;;;;;;;0.08;0.08;;;16.40;68.20;;;;;;5051233;28;20230;-56
2023/06/28 03:07:17;;;;;;;0.10;0.10;;;16.40;68.30;;;;;;5051785;28;20196;-56
2023/06/28 03:09:49;;;;;;;0.10;0.10;;;16.40;68.30;;;;;;5051259;28;20682;-55
2023/06/28 03:12:20;;;;;;;0.10;0.10;;;16.40;68.40;;;;;;5051561;28;20278;-53
2023/06/28 03:14:51;;;;;;;0.00;0.00;;;16.40;68.30;;;;;;5050998;28;20278;-55
2023/06/28 03:17:22;;;;;;;0.10;0.10;;;16.50;68.40;;;;;;5050827;28;20245;-54
2023/06/28 03:19:53;;;;;;;0.10;0.10;;;16.50;68.40;;;;;;5051019;28;20197;-53
2023/06/28 03:22:24;;;;;;;0.05;0.05;;;16.50;68.40;;;;;;5051315;28;20628;-49
2023/06/28 03:24:56;;;;;;;0.10;0.10;;;16.50;68.40;;;;;;5050919;28;20195;-54
2023/06/28 03:27:27;;;;;;;0.10;0.10;;;16.50;68.30;;;;;;5051329;28;20203;-54
2023/06/28 03:29:58;;;;;;;0.10;0.10;;;16.50;68.30;;;;;;5050965;28;20188;-50
2023/06/28 03:32:29;;;;;;;0.20;0.20;;;16.50;68.20;;;;;;5050207;28;20583;-52
2023/06/28 03:34:59;;;;;;;0.10;0.10;;;16.60;68.20;;;;;;5050712;28;20759;-55
2023/06/28 03:37:30;;;;;;;0.10;0.10;;;16.60;68.10;;;;;;5050748;28;20227;-53
2023/06/28 03:40:04;;;;;;;0.00;0.00;;;16.60;68.10;;;;;;5050995;28;20573;-55
2023/06/28 03:42:34;;;;;;;0.10;0.10;;;16.60;68.10;;;;;;5051578;28;20219;-55
2023/06/28 03:45:05;;;;;;;0.10;0.10;;;16.60;68.00;;;;;;5054981;28;20187;-54
2023/06/28 03:47:36;;;;;;;0.10;0.10;;;16.60;68.00;;;;;;5055019;28;20199;-52
2023/06/28 03:50:07;;;;;;;0.10;0.10;;;16.60;68.10;;;;;;5055148;28;20191;-54
2023/06/28 03:52:38;;;;;;;0.05;0.05;;;16.60;68.20;;;;;;5055326;28;20219;-54
2023/06/28 03:55:11;;;;;;;0.10;0.10;;;16.70;68.30;;;;;;5055301;28;20195;-53
2023/06/28 03:57:42;;;;;;;0.03;0.03;;;16.70;68.20;;;;;;5054685;28;20227;-48
2023/06/28 04:00:15;;;;;;;0.03;0.03;;;16.70;68.30;;;;;;5055200;28;20195;-56
2023/06/28 04:02:45;;;;;;;0.00;0.00;;;16.70;68.30;;;;;;5055363;28;20218;-56
2023/06/28 04:05:16;;;;;;;0.10;0.10;;;16.70;68.30;;;;;;5054269;28;20192;-53
2023/06/28 04:07:57;;;;;;;0.05;0.05;;;16.70;68.20;;;;;;5054452;28;20192;-56
2023/06/28 04:10:30;;;;;;;0.03;0.03;;;16.80;68.20;;;;;;5054300;28;20249;-52
2023/06/28 04:13:01;;;;;;;0.03;0.03;;;16.80;68.20;;;;;;5041360;28;20199;-55
2023/06/28 04:15:32;;;;;;;0.08;0.08;;;16.80;68.10;;;;;;5054100;28;20563;-54
2023/06/28 04:18:02;;;;;;;0.10;0.10;;;16.80;68.00;;;;;;5053708;28;20258;-52
2023/06/28 04:20:33;;;;;;;0.10;0.10;;;16.80;67.90;;;;;;5054040;28;20201;-55
2023/06/28 04:23:04;;;;;;;0.10;0.10;;;16.80;67.80;;;;;;5034801;28;20204;-54
2023/06/28 04:25:37;;;;;;;0.10;0.10;;;16.80;67.80;;;;;;5034122;28;20231;-57
2023/06/28 04:28:08;;;;;;;0.10;0.10;;;16.80;67.80;;;;;;5034478;28;20231;-56
2023/06/28 04:30:39;;;;;;;0.10;0.10;;;16.90;67.90;;;;;;5037148;28;20202;-54
2023/06/28 04:33:09;;;;;;;0.10;0.10;;;16.90;68.00;;;;;;5035827;28;20192;-53
2023/06/28 04:35:42;;;;;;;0.10;0.10;;;16.90;68.20;;;;;;5051426;28;20217;-53
2023/06/28 04:38:13;;;;;;;0.10;0.10;;;16.90;68.30;;;;;;5051261;28;20311;-52
2023/06/28 04:40:45;;;;;;;0.10;0.10;;;16.90;68.20;;;;;;5053923;28;20724;-50
2023/06/28 04:43:16;;;;;;;0.10;0.10;;;16.90;68.20;;;;;;5053733;28;20678;-55
2023/06/28 04:45:48;;;;;;;0.00;0.00;;;17.00;68.20;;;;;;5054478;28;20624;-53
2023/06/28 04:48:19;;;;;;;0.10;0.10;;;17.00;68.20;;;;;;5068322;28;20209;-53
2023/06/28 04:50:51;;;;;;;0.10;0.10;;;17.00;68.10;;;;;;5071765;28;20311;-54
2023/06/28 04:53:22;;;;;;;0.10;0.10;;;17.00;68.10;;;;;;5066594;28;20198;-50
2023/06/28 04:55:54;;;;;;;0.10;0.10;;;17.00;68.00;;;;;;5070909;28;20291;-54
2023/06/28 04:58:25;;;;;;;0.10;0.10;;;17.00;68.00;;;;;;5068854;28;20229;-52
2023/06/28 05:00:57;;;;;;;0.10;0.10;;;17.00;67.90;;;;;;5071182;28;20305;-53
2023/06/28 05:03:28;;;;;;;0.00;0.00;;;17.00;67.80;;;;;;5068944;28;20199;-52
2023/06/28 05:05:59;;;;;;;0.00;0.00;;;17.00;67.70;;;;;;5066842;28;20199;-51
2023/06/28 05:08:30;;;;;;;0.10;0.10;;;17.00;67.70;;;;;;5069653;28;20234;-51
2023/06/28 05:11:04;;;;;;;0.10;0.10;;;17.00;67.70;;;;;;5048249;28;20219;-52
2023/06/28 05:13:35;;;;;;;0.10;0.10;;;17.00;67.60;;;;;;5069369;28;20194;-51
2023/06/28 05:16:06;;;;;;;0.10;0.10;;;17.00;67.50;;;;;;5072094;28;20198;-56
2023/06/28 05:18:37;;;;;;;0.10;0.10;;;17.00;67.50;;;;;;5069864;28;20282;-55
2023/06/28 05:21:08;;;;;;;0.00;0.00;;;17.00;67.50;;;;;;5072365;28;20268;-53
2023/06/28 05:23:39;;;;;;;0.00;0.00;;;17.00;67.50;;;;;;5069812;28;20671;-52
2023/06/28 05:26:12;;;;;;;0.10;0.10;;;17.00;67.50;;;;;;5071833;28;20252;-55
2023/06/28 05:28:43;;;;;;;0.00;0.00;;;17.00;67.40;;;;;;5068566;28;20251;-53
2023/06/28 05:31:13;;;;;;;0.10;0.10;;;17.00;67.40;;;;;;5071839;28;20229;-55
2023/06/28 05:33:44;;;;;;;0.10;0.10;;;17.00;67.40;;;;;;5070615;28;20187;-51
2023/06/28 05:36:15;;;;;;;0.10;0.10;;;17.00;67.30;;;;;;5065687;28;20282;-54
2023/06/28 05:38:46;;;;;;;0.10;0.10;;;17.00;67.20;;;;;;5070807;28;20284;-53
2023/06/28 05:41:20;;;;;;;0.10;0.10;;;17.00;67.10;;;;;;5071395;28;20222;-53
2023/06/28 05:43:52;;;;;;;0.10;0.10;;;17.00;67.20;;;;;;5068873;28;20281;-53
2023/06/28 05:46:23;;;;;;;0.10;0.10;;;17.00;67.10;;;;;;5071372;28;20285;-55
2023/06/28 05:48:54;;;;;;;0.00;0.00;;;17.00;67.10;;;;;;5070018;28;20238;-54
2023/06/28 05:51:25;;;;;;;0.00;0.00;;;17.00;67.10;;;;;;5071925;28;20773;-56
2023/06/28 05:53:56;;;;;;;0.10;0.10;;;16.90;67.00;;;;;;5062450;28;20218;-55
2023/06/28 05:56:29;;;;;;;0.10;0.10;;;16.90;67.00;;;;;;5071582;28;20557;-54
2023/06/28 05:59:00;;;;;;;0.10;0.10;;;17.00;67.10;;;;;;5063957;28;20198;-54
2023/06/28 06:01:31;;;;;;;0.10;0.10;;;17.00;67.10;;;;;;5069935;28;20553;-56
2023/06/28 06:04:02;;;;;;;0.10;0.10;;;16.90;66.90;;;;;;5052440;28;20704;-56
2023/06/28 06:06:32;;;;;;;0.10;0.10;;;16.90;66.90;;;;;;5066405;28;20615;-56
2023/06/28 06:09:03;;;;;;;0.10;0.10;;;16.90;66.90;;;;;;5063749;28;20256;-55
2023/06/28 06:11:36;;;;;;;0.15;0.15;;;16.90;66.90;;;;;;5070354;28;20254;-51
2023/06/28 06:14:07;;;;;;;0.10;0.10;;;16.90;66.80;;;;;;5057057;28;20230;-53
2023/06/28 06:16:38;;;;;;;0.00;0.00;;;16.90;66.80;;;;;;5069958;28;20286;-54
2023/06/28 06:19:09;;;;;;;0.10;0.10;;;16.90;66.70;;;;;;5062860;28;20289;-51
2023/06/28 06:21:39;;;;;;;0.10;0.10;;;16.90;66.70;;;;;;5070082;28;20313;-52
2023/06/28 06:24:10;;;;;;;0.10;0.10;;;16.90;66.80;;;;;;5054037;28;20716;-50
2023/06/28 06:26:43;;;;;;;0.00;0.00;;;16.90;66.90;;;;;;5070660;28;20198;-53
2023/06/28 06:29:14;;;;;;;0.10;0.10;;;16.90;66.80;;;;;;5062673;28;20281;-53
2023/06/28 06:31:45;;;;;;;0.10;0.10;;;16.90;66.80;;;;;;5069197;28;20268;-50
2023/06/28 06:34:16;;;;;;;0.10;0.10;;;16.90;66.70;;;;;;5053939;28;20286;-53
2023/06/28 06:36:47;;;;;;;0.10;0.10;;;16.90;66.80;;;;;;5067098;28;20203;-49
2023/06/28 06:39:17;;;;;;;0.10;0.10;;;16.90;66.80;;;;;;5064627;28;20662;-49
2023/06/28 06:41:50;;;;;;;0.10;0.10;;;16.90;66.70;;;;;;5070176;28;20336;-51
2023/06/28 06:44:21;;;;;;;0.10;0.10;;;16.80;66.60;;;;;;5068691;28;20292;-50
2023/06/28 06:46:52;;;;;;;0.10;0.10;;;16.80;66.60;;;;;;5069526;28;20298;-49
2023/06/28 06:49:23;;;;;;;0.00;0.00;;;16.80;66.60;;;;;;5063184;28;20202;-50
2023/06/28 06:51:53;;;;;;;0.10;0.10;;;16.80;66.60;;;;;;5066409;28;20295;-52
2023/06/28 06:54:24;;;;;;;0.10;0.10;;;16.80;66.60;;;;;;5063440;28;20221;-49
2023/06/28 06:56:57;;;;;;;0.10;0.10;;;16.80;66.60;;;;;;5069372;28;20290;-55
2023/06/28 06:59:28;;;;;;;0.20;0.20;;;16.80;66.60;;;;;;5061704;28;20736;-54
2023/06/28 07:02:02;;;;;;;0.10;0.10;;;16.80;66.60;;;;;;5067286;28;20302;-55
2023/06/28 07:04:34;;;;;;;0.10;0.10;;;16.80;66.60;;;;;;5056625;28;20691;-52
2023/06/28 07:07:05;;;;;;;0.10;0.10;;;16.80;66.60;;;;;;5054223;28;20203;-55
2023/06/28 07:09:36;;;;;;;0.10;0.10;;;16.80;66.50;;;;;;5056807;28;20233;-52
2023/06/28 07:12:10;;;;;;;0.00;0.00;;;16.80;66.50;;;;;;5069517;28;20219;-56
2023/06/28 07:14:41;;;;;;;0.20;0.20;;;16.80;66.50;;;;;;5068009;28;20215;-56
2023/06/28 07:17:12;;;;;;;0.08;0.08;;;16.70;66.50;;;;;;5069384;28;20280;-55
2023/06/28 07:19:43;;;;;;;0.10;0.10;;;16.80;66.50;;;;;;5053698;28;20651;-53
2023/06/28 07:22:15;;;;;;;0.10;0.10;;;16.80;66.50;;;;;;5071288;28;20211;-55
2023/06/28 07:24:46;;;;;;;0.10;0.10;;;16.70;66.50;;;;;;5071080;28;20199;-52
2023/06/28 07:27:19;;;;;;;0.10;0.10;;;16.70;66.40;;;;;;5071628;28;20260;-54
2023/06/28 07:29:50;;;;;;;0.00;0.00;;;16.70;66.50;;;;;;5071272;28;20221;-55
2023/06/28 07:32:20;;;;;;;0.20;0.20;;;16.70;66.40;;;;;;5070941;28;20280;-56
2023/06/28 07:34:54;;;;;;;0.10;0.10;;;16.70;66.40;;;;;;5063307;28;20300;-56
2023/06/28 07:37:25;;;;;;;0.10;0.10;;;16.70;66.40;;;;;;5050864;28;20232;-54
2023/06/28 07:39:57;;;;;;;0.00;0.00;;;16.70;66.50;;;;;;5051039;28;20204;-54
2023/06/28 07:42:30;;;;;;;0.10;0.10;;;16.70;66.40;;;;;;5050866;28;20215;-55
2023/06/28 07:45:02;;;;;;;0.10;0.10;;;16.70;66.40;;;;;;5049749;28;20245;-54
2023/06/28 07:47:33;;;;;;;0.10;0.10;;;16.70;66.40;;;;;;5050368;28;20203;-56
2023/06/28 07:50:04;;;;;;;0.10;0.10;;;16.70;66.30;;;;;;5050962;28;20256;-54
2023/06/28 07:52:35;;;;;;;0.10;0.10;;;16.60;66.20;;;;;;5050998;28;20215;-55
2023/06/28 07:55:07;;;;;;;0.10;0.10;;;16.60;66.30;;;;;;5051020;28;20607;-55
2023/06/28 07:57:40;;;;;;;0.10;0.10;;;16.60;66.30;;;;;;5032804;28;20710;-54
2023/06/28 08:00:12;;;;;;;0.10;0.10;;;16.60;66.20;;;;;;5033210;28;20195;-54
2023/06/28 08:02:43;;;;;;;0.10;0.10;;;16.60;66.30;;;;;;5050305;28;20680;-54
2023/06/28 08:05:14;;;;;;;0.10;0.10;;;16.60;66.30;;;;;;5050600;28;20206;-55
2023/06/28 08:07:47;;;;;;;0.10;0.10;;;16.60;66.30;;;;;;5050704;28;20199;-55
2023/06/28 08:10:19;;;;;;;0.10;0.10;;;16.60;66.30;;;;;;5051504;28;20242;-56
2023/06/28 08:12:53;;;;;;;0.10;0.10;;;16.60;66.30;;;;;;5050650;28;20308;-56
2023/06/28 08:15:24;;;;;;;0.03;0.03;;;16.60;66.30;;;;;;5050598;28;20434;-55
2023/06/28 08:17:55;;;;;;;0.10;0.10;;;16.50;66.20;;;;;;5049650;28;20760;-56
2023/06/28 08:20:27;;;;;;;0.10;0.10;;;16.50;66.20;;;;;;5050467;28;20245;-56
2023/06/28 08:22:58;;;;;;;0.05;0.05;;;16.50;66.20;;;;;;5033678;28;20231;-54
2023/06/28 08:25:29;;;;;;;0.10;0.10;;;16.50;66.20;;;;;;5050698;28;20762;-55
2023/06/28 08:28:01;;;;;;;0.10;0.10;;;16.50;66.20;;;;;;5050851;28;20199;-56
2023/06/28 08:30:34;;;;;;;0.10;0.10;;;16.50;66.20;;;;;;5052924;28;20230;-56
2023/06/28 08:33:06;;;;;;;0.15;0.15;;;16.50;66.20;;;;;;5033809;28;20238;-56
2023/06/28 08:35:37;;;;;;;0.10;0.10;;;16.50;66.10;;;;;;5048208;28;20234;-56
2023/06/28 08:38:07;;;;;;;0.10;0.10;;;16.50;66.20;;;;;;5053855;28;20259;-57
2023/06/28 08:40:38;;;;;;;0.10;0.10;;;16.50;66.20;;;;;;5053870;28;20214;-56
2023/06/28 08:43:16;;;;;;;0.10;0.10;;;16.50;66.20;;;;;;5052849;28;20203;-56
2023/06/28 08:45:47;;;;;;;0.10;0.10;;;16.50;66.20;;;;;;5070820;28;20704;-55
2023/06/28 08:48:18;;;;;;;0.10;0.10;;;16.50;66.20;;;;;;5068185;28;20639;-54
2023/06/28 08:50:51;;;;;;;0.10;0.10;;;16.50;66.30;;;;;;5034551;28;20306;-54
2023/06/28 08:53:25;;;;;;;0.05;0.05;;;16.50;66.30;;;;;;5060275;28;20246;-54
2023/06/28 08:55:57;;;;;;;0.08;0.08;;;16.50;66.30;;;;;;5050124;28;20244;-57
2023/06/28 08:58:33;;;;;;;0.00;0.00;;;16.50;66.30;;;;;;5050721;28;20223;-57
2023/06/28 09:01:04;;;;;;;0.10;0.10;;;16.40;66.20;;;;;;5048167;28;20293;-57
2023/06/28 09:03:35;;;;;;;0.10;0.10;;;16.50;66.30;;;;;;5050589;28;20641;-56
2023/06/28 09:06:07;;;;;;;0.10;0.10;;;16.40;66.20;;;;;;5066371;28;20248;-55
2023/06/28 09:08:38;;;;;;;0.10;0.10;;;16.40;66.30;;;;;;5064410;28;20223;-51
2023/06/28 09:11:11;;;;;;;0.10;0.10;;;16.40;66.20;;;;;;5070271;28;20219;-56
2023/06/28 09:13:44;;;;;;;0.10;0.10;;;16.40;66.20;;;;;;5063758;28;20714;-54
2023/06/28 09:16:20;;;;;;;0.10;0.10;;;16.40;66.10;;;;;;5037832;28;20590;-55
2023/06/28 09:18:52;;;;;;;0.00;0.00;;;16.40;66.10;;;;;;5062925;28;20599;-55
2023/06/28 09:21:29;;;;;;;0.00;0.00;;;16.40;66.20;;;;;;5070982;28;20223;-57
2023/06/28 09:24:02;;;;;;;0.10;0.10;;;16.40;66.10;;;;;;5065284;28;20261;-55
2023/06/28 09:26:37;;;;;;;0.10;0.10;;;16.30;66.10;;;;;;5071610;28;20301;-54
2023/06/28 09:29:15;;;;;;;0.10;0.10;;;16.30;66.10;;;;;;5054964;28;20206;-56
2023/06/28 09:31:46;;;;;;;0.10;0.10;;;16.30;66.10;;;;;;5068160;28;20268;-54
2023/06/28 09:34:23;;;;;;;0.00;0.00;;;16.30;66.10;;;;;;5061457;28;20282;-56
2023/06/28 09:36:56;;;;;;;0.10;0.10;;;16.30;66.10;;;;;;5070609;28;20230;-54
2023/06/28 09:39:28;;;;;;;0.10;0.10;;;16.30;66.10;;;;;;5065275;28;20800;-52
2023/06/28 09:41:59;;;;;;;0.10;0.10;;;16.30;66.10;;;;;;5068491;28;20260;-57
2023/06/28 09:44:33;;;;;;;0.10;0.10;;;16.30;66.10;;;;;;5065218;28;20253;-54
2023/06/28 09:47:05;;;;;;;0.10;0.10;;;16.30;66.10;;;;;;5052445;28;20605;-57
2023/06/28 09:49:39;;;;;;;0.10;0.10;;;16.20;66.00;;;;;;5065865;28;20256;-54
2023/06/28 09:52:12;;;;;;;0.10;0.10;;;16.30;66.10;;;;;;5070818;28;20227;-55
2023/06/28 09:54:44;;;;;;;0.10;0.10;;;16.20;66.00;;;;;;5065731;28;20743;-55
2023/06/28 09:57:15;;;;;;;0.00;0.00;;;16.30;66.10;;;;;;5071152;28;20198;-54
2023/06/28 09:59:54;;;;;;;0.00;0.00;;;16.20;65.90;;;;;;5051399;28;20227;-56
2023/06/28 10:02:27;;;;;;;0.00;0.00;;;16.20;65.90;;;;;;5044671;28;20298;-57
2023/06/28 10:04:59;;;;;;;0.00;0.00;;;16.20;65.90;;;;;;5045589;28;20266;-54
2023/06/28 10:07:31;;;;;;;0.10;0.10;;;16.20;65.90;;;;;;5041225;28;20279;-53
2023/06/28 10:10:02;;;;;;;0.10;0.10;;;16.20;66.00;;;;;;5041628;28;20242;-55
2023/06/28 10:12:35;;;;;;;0.10;0.10;;;16.20;66.00;;;;;;5041585;28;20383;-54
2023/06/28 10:15:12;;;;;;;0.10;0.10;;;16.20;66.00;;;;;;5041141;28;20220;-55
2023/06/28 10:17:44;;;;;;;0.10;0.10;;;16.20;65.90;;;;;;5041896;28;20199;-55
2023/06/28 10:20:16;;;;;;;0.10;0.10;;;16.20;65.90;;;;;;5041768;28;20652;-56
2023/06/28 10:22:48;;;;;;;0.10;0.10;;;16.20;66.00;;;;;;5040502;28;20258;-53
2023/06/28 10:25:19;;;;;;;0.05;0.05;;;16.20;66.00;;;;;;5044358;28;20664;-55
2023/06/28 10:27:51;;;;;;;0.10;0.10;;;16.20;66.00;;;;;;5043711;28;20184;-52
2023/06/28 10:30:26;;;;;;;0.10;0.10;;;16.20;66.00;;;;;;5041434;28;20227;-56
2023/06/28 10:32:58;;;;;;;0.10;0.10;;;16.20;65.90;;;;;;5040430;28;20226;-53
2023/06/28 10:35:31;;;;;;;0.15;0.15;;;16.20;65.90;;;;;;5042578;28;20199;-55
2023/06/28 10:38:04;;;;;;;0.10;0.10;;;16.20;65.90;;;;;;5040704;28;20278;-55
2023/06/28 10:40:35;;;;;;;0.10;0.10;;;16.20;65.90;;;;;;5040944;28;20188;-54
2023/06/28 10:43:06;;;;;;;0.08;0.08;;;16.20;65.90;;;;;;5027703;28;20629;-54
2023/06/28 10:45:42;;;;;;;0.10;0.10;;;16.20;65.80;;;;;;5023648;28;20258;-54
2023/06/28 10:48:19;;;;;;;0.10;0.10;;;16.10;65.80;;;;;;5040790;28;20197;-55
2023/06/28 10:50:52;;;;;;;0.10;0.10;;;16.10;65.80;;;;;;5040309;28;20211;-55
2023/06/28 10:53:25;;;;;;;0.10;0.10;;;16.10;65.80;;;;;;5040386;28;20595;-56
2023/06/28 10:56:18;;;;;;;0.10;0.10;;;16.10;65.90;;;;;;5041803;28;20238;-56
2023/06/28 10:58:52;;;;;;;0.20;0.20;;;16.10;65.90;;;;;;5041688;28;20215;-53
2023/06/28 11:01:38;;;;;;;0.17;0.17;;;16.10;65.80;;;;;;5042006;28;20615;-56
2023/06/28 11:04:22;;;;;;;0.10;0.10;;;16.10;65.90;;;;;;5042272;28;20290;-53
2023/06/28 11:07:19;;;;;;;0.10;0.10;;;16.10;65.90;;;;;;5040164;28;20218;-52
2023/06/28 11:10:16;;;;;;;0.03;0.03;;;16.10;65.90;;;;;;5041594;28;20245;-49
2023/06/28 11:12:50;;;;;;;0.10;0.10;;;16.10;65.80;;;;;;5034439;28;20216;-53
2023/06/28 11:15:30;;;;;;;0.10;0.10;;;16.10;65.70;;;;;;5043320;28;20196;-55
2023/06/28 11:18:14;;;;;;;0.10;0.10;;;16.10;65.90;;;;;;5041394;28;20598;-50
2023/06/28 11:21:00;;;;;;;0.10;0.10;;;16.10;65.80;;;;;;5041714;28;20322;-52
2023/06/28 11:23:38;;;;;;;0.10;0.10;;;16.10;65.80;;;;;;5041036;28;20298;-55
2023/06/28 11:26:11;;;;;;;0.10;0.10;;;16.10;65.80;;;;;;5042001;28;20250;-57
2023/06/28 11:28:50;;;;;;;0.00;0.00;;;16.00;65.80;;;;;;5041527;28;20668;-53
2023/06/28 11:31:24;;;;;;;0.10;0.10;;;16.00;65.80;;;;;;5041158;28;20207;-56
2023/06/28 11:33:57;;;;;;;0.10;0.10;;;16.00;65.80;;;;;;5041286;28;20184;-50
2023/06/28 11:36:28;;;;;;;0.08;0.08;;;16.00;65.80;;;;;;5042674;28;20284;-57
2023/06/28 11:39:00;;;;;;;0.10;0.10;;;16.00;65.80;;;;;;5040333;28;20204;-53
2023/06/28 11:41:35;;;;;;;0.10;0.10;;;16.00;65.90;;;;;;5039773;28;20215;-52
2023/06/28 11:44:09;;;;;;;0.10;0.10;;;16.00;65.80;;;;;;5040413;28;20193;-52
2023/06/28 11:46:40;;;;;;;0.10;0.10;;;16.00;65.90;;;;;;5040744;28;20199;-54
2023/06/28 11:49:13;;;;;;;0.10;0.10;;;16.00;65.80;;;;;;5039393;28;20192;-54
2023/06/28 11:51:45;;;;;;;0.15;0.15;;;16.00;65.80;;;;;;5040300;28;20661;-57
2023/06/28 11:54:18;;;;;;;0.00;0.00;;;16.00;65.80;;;;;;5041399;28;20187;-57
2023/06/28 11:56:52;;;;;;;0.10;0.10;;;16.00;65.80;;;;;;5041604;28;20227;-55
2023/06/28 11:59:24;;;;;;;0.10;0.10;;;16.00;65.70;;;;;;5040789;28;20220;-57
2023/06/28 12:02:05;;;;;;;0.05;0.05;;;16.00;65.70;;;;;;5039832;28;20212;-55
2023/06/28 12:04:39;;;;;;;0.10;0.10;;;16.00;65.70;;;;;;5043861;28;20416;-53
2023/06/28 12:07:10;;;;;;;0.08;0.08;;;16.00;65.70;;;;;;5049334;28;20219;-52
2023/06/28 12:09:41;;;;;;;0.10;0.10;;;16.00;65.70;;;;;;5045048;28;20275;-54
2023/06/28 12:12:12;;;;;;;0.10;0.10;;;16.00;65.70;;;;;;5043465;28;20278;-56
2023/06/28 12:14:44;;;;;;;0.10;0.10;;;15.90;65.60;;;;;;5044159;28;20234;-52
2023/06/28 12:17:17;;;;;;;0.03;0.03;;;15.90;65.60;;;;;;5043583;28;20184;-52
2023/06/28 12:19:50;;;;;;;0.10;0.10;;;15.90;65.60;;;;;;5043558;28;20318;-55
2023/06/28 12:22:20;;;;;;;0.10;0.10;;;15.90;65.60;;;;;;5043914;28;20687;-51
2023/06/28 12:24:51;;;;;;;0.10;0.10;;;15.90;65.60;;;;;;5043024;28;20241;-53
2023/06/28 12:27:23;;;;;;;0.10;0.10;;;15.90;65.60;;;;;;5046443;28;20267;-55
2023/06/28 12:29:55;;;;;;;0.10;0.10;;;15.90;65.60;;;;;;5043688;28;20197;-51
2023/06/28 12:32:27;;;;;;;0.10;0.10;;;15.90;65.60;;;;;;5026215;28;20280;-55
2023/06/28 12:34:59;;;;;;;0.10;0.10;;;15.90;65.60;;;;;;5045477;28;20200;-55
2023/06/28 12:37:42;;;;;;;0.10;0.10;;;15.90;65.60;;;;;;5045181;28;20189;-54
2023/06/28 12:40:15;;;;;;;0.10;0.10;;;15.90;65.50;;;;;;5043062;28;20219;-55
2023/06/28 12:42:46;;;;;;;0.10;0.10;;;15.90;65.50;;;;;;5043632;28;20294;-56
2023/06/28 12:45:23;;;;;;;0.20;0.20;;;15.90;65.50;;;;;;5043382;28;20238;-57
2023/06/28 12:47:55;;;;;;;0.10;0.10;;;15.90;65.50;;;;;;5043070;28;20188;-56
2023/06/28 12:50:28;;;;;;;0.10;0.10;;;15.90;65.60;;;;;;5042997;28;20192;-53
2023/06/28 12:52:59;;;;;;;0.10;0.10;;;15.90;65.50;;;;;;5043330;28;20223;-57
2023/06/28 12:55:30;;;;;;;0.10;0.10;;;15.90;65.50;;;;;;5043033;28;20607;-56
2023/06/28 12:58:01;;;;;;;0.20;0.20;;;15.90;65.50;;;;;;5044115;28;20233;-53
2023/06/28 13:00:31;;;;;;;0.10;0.10;;;15.80;65.50;;;;;;5044541;28;20245;-57
2023/06/28 13:03:02;;;;;;;0.15;0.15;;;15.80;65.50;;;;;;5043607;28;20188;-56
2023/06/28 13:05:35;;;;;;;0.05;0.05;;;15.80;65.50;;;;;;5044665;28;20677;-56
2023/06/28 13:08:07;;;;;;;0.10;0.10;;;15.80;65.50;;;;;;5042930;28;20223;-57
2023/06/28 13:10:38;;;;;;;0.10;0.10;;;15.80;65.50;;;;;;5026147;28;20648;-54
2023/06/28 13:13:08;;;;;;;0.10;0.10;;;15.80;65.50;;;;;;5042501;28;20671;-55